sensor_id;sensor_type;location;lat;lon;timestamp;P1;durP1;ratioP1;P2;durP2;ratioP2
26062;SDS011;13837;48.562;12.108;2022-12-24T00:01:57;8.05;;;7.63;;
26062;SDS011;13837;48.562;12.108;2022-12-24T00:04:23;7.80;;;7.40;;
26062;SDS011;13837;48.562;12.108;2022-12-24T00:06:52;8.55;;;7.93;;
26062;SDS011;13837;48.562;12.108;2022-12-24T00:09:18;8.40;;;7.88;;
26062;SDS011;13837;48.562;12.108;2022-12-24T00:11:44;7.97;;;7.57;;
26062;SDS011;13837;48.562;12.108;2022-12-24T00:14:09;7.82;;;7.40;;
26062;SDS011;13837;48.562;12.108;2022-12-24T00:16:35;8.07;;;7.38;;
26062;SDS011;13837;48.562;12.108;2022-12-24T00:19:01;8.55;;;8.05;;
26062;SDS011;13837;48.562;12.108;2022-12-24T00:21:26;8.20;;;7.60;;
26062;SDS011;13837;48.562;12.108;2022-12-24T00:23:52;7.68;;;7.38;;
26062;SDS011;13837;48.562;12.108;2022-12-24T00:26:18;8.48;;;8.00;;
26062;SDS011;13837;48.562;12.108;2022-12-24T00:28:43;8.25;;;7.70;;
26062;SDS011;13837;48.562;12.108;2022-12-24T00:31:16;8.13;;;7.63;;
26062;SDS011;13837;48.562;12.108;2022-12-24T00:33:44;7.57;;;7.18;;
26062;SDS011;13837;48.562;12.108;2022-12-24T00:36:10;7.50;;;7.10;;
26062;SDS011;13837;48.562;12.108;2022-12-24T00:38:37;7.47;;;7.10;;
26062;SDS011;13837;48.562;12.108;2022-12-24T00:41:03;7.35;;;7.05;;
26062;SDS011;13837;48.562;12.108;2022-12-24T00:43:30;8.02;;;7.53;;
26062;SDS011;13837;48.562;12.108;2022-12-24T00:45:58;8.10;;;7.72;;
26062;SDS011;13837;48.562;12.108;2022-12-24T00:48:24;8.07;;;7.57;;
26062;SDS011;13837;48.562;12.108;2022-12-24T00:50:50;8.88;;;8.32;;
26062;SDS011;13837;48.562;12.108;2022-12-24T00:53:16;8.15;;;7.75;;
26062;SDS011;13837;48.562;12.108;2022-12-24T00:55:42;7.97;;;7.57;;
26062;SDS011;13837;48.562;12.108;2022-12-24T00:58:08;7.70;;;7.40;;
26062;SDS011;13837;48.562;12.108;2022-12-24T01:00:34;8.60;;;8.10;;
26062;SDS011;13837;48.562;12.108;2022-12-24T01:03:00;7.65;;;7.35;;
26062;SDS011;13837;48.562;12.108;2022-12-24T01:05:25;8.85;;;8.35;;
26062;SDS011;13837;48.562;12.108;2022-12-24T01:07:51;9.13;;;8.60;;
26062;SDS011;13837;48.562;12.108;2022-12-24T01:10:18;8.30;;;7.90;;
26062;SDS011;13837;48.562;12.108;2022-12-24T01:12:46;8.98;;;8.38;;
26062;SDS011;13837;48.562;12.108;2022-12-24T01:15:12;8.38;;;7.88;;
26062;SDS011;13837;48.562;12.108;2022-12-24T01:17:39;8.10;;;7.70;;
26062;SDS011;13837;48.562;12.108;2022-12-24T01:20:07;7.72;;;7.43;;
26062;SDS011;13837;48.562;12.108;2022-12-24T01:22:35;7.60;;;7.30;;
26062;SDS011;13837;48.562;12.108;2022-12-24T01:25:01;7.80;;;7.50;;
26062;SDS011;13837;48.562;12.108;2022-12-24T01:27:27;7.78;;;7.40;;
26062;SDS011;13837;48.562;12.108;2022-12-24T01:29:53;8.88;;;8.38;;
26062;SDS011;13837;48.562;12.108;2022-12-24T01:32:18;8.23;;;7.80;;
26062;SDS011;13837;48.562;12.108;2022-12-24T01:34:44;7.60;;;7.10;;
26062;SDS011;13837;48.562;12.108;2022-12-24T01:37:10;7.72;;;7.40;;
26062;SDS011;13837;48.562;12.108;2022-12-24T01:39:35;7.25;;;6.95;;
26062;SDS011;13837;48.562;12.108;2022-12-24T01:42:01;9.70;;;8.90;;
26062;SDS011;13837;48.562;12.108;2022-12-24T01:44:47;8.40;;;7.80;;
26062;SDS011;13837;48.562;12.108;2022-12-24T01:47:20;8.75;;;8.13;;
26062;SDS011;13837;48.562;12.108;2022-12-24T01:49:55;8.93;;;8.32;;
26062;SDS011;13837;48.562;12.108;2022-12-24T01:52:29;8.13;;;7.65;;
26062;SDS011;13837;48.562;12.108;2022-12-24T01:55:05;7.20;;;6.90;;
26062;SDS011;13837;48.562;12.108;2022-12-24T01:57:42;7.57;;;7.10;;
26062;SDS011;13837;48.562;12.108;2022-12-24T02:00:13;7.72;;;7.32;;
26062;SDS011;13837;48.562;12.108;2022-12-24T02:02:40;8.07;;;7.47;;
26062;SDS011;13837;48.562;12.108;2022-12-24T02:05:11;8.40;;;7.90;;
26062;SDS011;13837;48.562;12.108;2022-12-24T02:07:40;8.93;;;8.10;;
26062;SDS011;13837;48.562;12.108;2022-12-24T02:10:09;8.50;;;7.85;;
26062;SDS011;13837;48.562;12.108;2022-12-24T02:12:36;8.27;;;7.78;;
26062;SDS011;13837;48.562;12.108;2022-12-24T02:15:04;8.25;;;7.78;;
26062;SDS011;13837;48.562;12.108;2022-12-24T02:20:13;8.15;;;7.80;;
26062;SDS011;13837;48.562;12.108;2022-12-24T02:31:12;8.38;;;7.97;;
26062;SDS011;13837;48.562;12.108;2022-12-24T02:33:45;7.50;;;7.20;;
26062;SDS011;13837;48.562;12.108;2022-12-24T02:36:28;9.43;;;8.45;;
26062;SDS011;13837;48.562;12.108;2022-12-24T02:39:03;9.00;;;8.30;;
26062;SDS011;13837;48.562;12.108;2022-12-24T02:41:40;8.07;;;7.53;;
26062;SDS011;13837;48.562;12.108;2022-12-24T02:44:31;8.43;;;7.82;;
26062;SDS011;13837;48.562;12.108;2022-12-24T02:47:02;7.90;;;7.40;;
26062;SDS011;13837;48.562;12.108;2022-12-24T02:49:30;13.27;;;12.67;;
26062;SDS011;13837;48.562;12.108;2022-12-24T02:51:56;8.05;;;7.55;;
26062;SDS011;13837;48.562;12.108;2022-12-24T02:54:21;7.85;;;7.45;;
26062;SDS011;13837;48.562;12.108;2022-12-24T02:59:33;8.60;;;7.85;;
26062;SDS011;13837;48.562;12.108;2022-12-24T03:02:25;8.73;;;8.20;;
26062;SDS011;13837;48.562;12.108;2022-12-24T03:04:55;8.27;;;7.78;;
26062;SDS011;13837;48.562;12.108;2022-12-24T03:07:37;8.60;;;8.13;;
26062;SDS011;13837;48.562;12.108;2022-12-24T03:12:55;9.38;;;8.77;;
26062;SDS011;13837;48.562;12.108;2022-12-24T03:15:26;9.40;;;8.60;;
26062;SDS011;13837;48.562;12.108;2022-12-24T03:17:55;9.15;;;8.32;;
26062;SDS011;13837;48.562;12.108;2022-12-24T03:20:25;8.45;;;7.90;;
26062;SDS011;13837;48.562;12.108;2022-12-24T03:23:09;9.95;;;9.15;;
26062;SDS011;13837;48.562;12.108;2022-12-24T03:25:37;9.10;;;8.40;;
26062;SDS011;13837;48.562;12.108;2022-12-24T03:28:06;9.10;;;8.40;;
26062;SDS011;13837;48.562;12.108;2022-12-24T03:30:34;9.30;;;8.40;;
26062;SDS011;13837;48.562;12.108;2022-12-24T03:33:03;8.68;;;8.27;;
26062;SDS011;13837;48.562;12.108;2022-12-24T03:35:28;8.55;;;8.15;;
26062;SDS011;13837;48.562;12.108;2022-12-24T03:37:54;9.00;;;8.43;;
26062;SDS011;13837;48.562;12.108;2022-12-24T03:40:20;9.10;;;8.60;;
26062;SDS011;13837;48.562;12.108;2022-12-24T03:42:46;9.05;;;8.57;;
26062;SDS011;13837;48.562;12.108;2022-12-24T03:45:12;9.25;;;8.65;;
26062;SDS011;13837;48.562;12.108;2022-12-24T03:47:38;8.85;;;8.13;;
26062;SDS011;13837;48.562;12.108;2022-12-24T03:50:03;8.38;;;7.90;;
26062;SDS011;13837;48.562;12.108;2022-12-24T03:52:30;8.98;;;8.32;;
26062;SDS011;13837;48.562;12.108;2022-12-24T03:54:56;9.73;;;8.70;;
26062;SDS011;13837;48.562;12.108;2022-12-24T03:57:22;9.45;;;8.65;;
26062;SDS011;13837;48.562;12.108;2022-12-24T03:59:47;8.60;;;8.10;;
26062;SDS011;13837;48.562;12.108;2022-12-24T04:02:13;13.15;;;8.73;;
26062;SDS011;13837;48.562;12.108;2022-12-24T04:04:39;9.10;;;8.70;;
26062;SDS011;13837;48.562;12.108;2022-12-24T04:07:05;8.88;;;8.30;;
26062;SDS011;13837;48.562;12.108;2022-12-24T04:09:31;9.07;;;8.68;;
26062;SDS011;13837;48.562;12.108;2022-12-24T04:11:56;10.48;;;9.57;;
26062;SDS011;13837;48.562;12.108;2022-12-24T04:14:22;9.95;;;9.10;;
26062;SDS011;13837;48.562;12.108;2022-12-24T04:16:48;9.60;;;9.00;;
26062;SDS011;13837;48.562;12.108;2022-12-24T04:19:14;9.10;;;8.48;;
26062;SDS011;13837;48.562;12.108;2022-12-24T04:21:39;9.85;;;9.23;;
26062;SDS011;13837;48.562;12.108;2022-12-24T04:24:05;9.77;;;9.05;;
26062;SDS011;13837;48.562;12.108;2022-12-24T04:26:31;10.05;;;9.48;;
26062;SDS011;13837;48.562;12.108;2022-12-24T04:28:56;9.32;;;8.75;;
26062;SDS011;13837;48.562;12.108;2022-12-24T04:31:22;10.02;;;9.43;;
26062;SDS011;13837;48.562;12.108;2022-12-24T04:33:49;10.73;;;9.93;;
26062;SDS011;13837;48.562;12.108;2022-12-24T04:36:16;9.82;;;9.23;;
26062;SDS011;13837;48.562;12.108;2022-12-24T04:38:43;10.07;;;9.48;;
26062;SDS011;13837;48.562;12.108;2022-12-24T04:41:14;10.80;;;10.10;;
26062;SDS011;13837;48.562;12.108;2022-12-24T04:43:41;9.90;;;9.30;;
26062;SDS011;13837;48.562;12.108;2022-12-24T04:46:08;9.75;;;9.25;;
26062;SDS011;13837;48.562;12.108;2022-12-24T04:48:36;9.77;;;9.18;;
26062;SDS011;13837;48.562;12.108;2022-12-24T04:51:03;9.70;;;9.10;;
26062;SDS011;13837;48.562;12.108;2022-12-24T04:53:30;10.32;;;9.70;;
26062;SDS011;13837;48.562;12.108;2022-12-24T04:55:56;9.52;;;9.13;;
26062;SDS011;13837;48.562;12.108;2022-12-24T04:58:22;10.10;;;9.50;;
26062;SDS011;13837;48.562;12.108;2022-12-24T05:00:50;9.88;;;9.23;;
26062;SDS011;13837;48.562;12.108;2022-12-24T05:03:15;10.77;;;9.98;;
26062;SDS011;13837;48.562;12.108;2022-12-24T05:05:41;10.13;;;9.43;;
26062;SDS011;13837;48.562;12.108;2022-12-24T05:08:07;10.15;;;9.50;;
26062;SDS011;13837;48.562;12.108;2022-12-24T05:10:33;10.35;;;9.75;;
26062;SDS011;13837;48.562;12.108;2022-12-24T05:12:58;10.00;;;9.25;;
26062;SDS011;13837;48.562;12.108;2022-12-24T05:15:25;10.75;;;9.82;;
26062;SDS011;13837;48.562;12.108;2022-12-24T05:17:51;10.45;;;9.75;;
26062;SDS011;13837;48.562;12.108;2022-12-24T05:20:16;10.07;;;9.45;;
26062;SDS011;13837;48.562;12.108;2022-12-24T05:22:42;11.15;;;10.13;;
26062;SDS011;13837;48.562;12.108;2022-12-24T05:25:33;9.70;;;9.10;;
26062;SDS011;13837;48.562;12.108;2022-12-24T05:28:21;10.60;;;9.95;;
26062;SDS011;13837;48.562;12.108;2022-12-24T05:30:47;10.90;;;9.95;;
26062;SDS011;13837;48.562;12.108;2022-12-24T05:33:14;11.52;;;10.43;;
26062;SDS011;13837;48.562;12.108;2022-12-24T05:35:41;10.10;;;9.50;;
26062;SDS011;13837;48.562;12.108;2022-12-24T05:38:06;10.82;;;9.80;;
26062;SDS011;13837;48.562;12.108;2022-12-24T05:40:33;10.93;;;9.93;;
26062;SDS011;13837;48.562;12.108;2022-12-24T05:42:58;10.43;;;9.63;;
26062;SDS011;13837;48.562;12.108;2022-12-24T05:45:24;10.40;;;9.80;;
26062;SDS011;13837;48.562;12.108;2022-12-24T05:47:50;11.20;;;10.02;;
26062;SDS011;13837;48.562;12.108;2022-12-24T05:50:15;13.30;;;10.35;;
26062;SDS011;13837;48.562;12.108;2022-12-24T05:52:41;12.93;;;11.48;;
26062;SDS011;13837;48.562;12.108;2022-12-24T05:55:07;10.88;;;10.00;;
26062;SDS011;13837;48.562;12.108;2022-12-24T05:57:33;11.23;;;10.20;;
26062;SDS011;13837;48.562;12.108;2022-12-24T05:59:59;12.25;;;10.18;;
26062;SDS011;13837;48.562;12.108;2022-12-24T06:02:24;12.30;;;9.82;;
26062;SDS011;13837;48.562;12.108;2022-12-24T06:04:50;11.02;;;9.65;;
26062;SDS011;13837;48.562;12.108;2022-12-24T06:07:15;11.52;;;10.48;;
26062;SDS011;13837;48.562;12.108;2022-12-24T06:09:41;11.82;;;10.45;;
26062;SDS011;13837;48.562;12.108;2022-12-24T06:12:07;12.02;;;10.20;;
26062;SDS011;13837;48.562;12.108;2022-12-24T06:14:33;11.13;;;9.95;;
26062;SDS011;13837;48.562;12.108;2022-12-24T06:16:58;16.35;;;10.60;;
26062;SDS011;13837;48.562;12.108;2022-12-24T06:19:24;10.95;;;10.00;;
26062;SDS011;13837;48.562;12.108;2022-12-24T06:21:50;10.63;;;9.88;;
26062;SDS011;13837;48.562;12.108;2022-12-24T06:24:15;11.88;;;10.73;;
26062;SDS011;13837;48.562;12.108;2022-12-24T06:26:41;11.73;;;10.30;;
26062;SDS011;13837;48.562;12.108;2022-12-24T06:29:07;11.65;;;9.85;;
26062;SDS011;13837;48.562;12.108;2022-12-24T06:31:32;11.32;;;9.98;;
26062;SDS011;13837;48.562;12.108;2022-12-24T06:33:58;10.45;;;9.55;;
26062;SDS011;13837;48.562;12.108;2022-12-24T06:36:24;11.23;;;9.45;;
26062;SDS011;13837;48.562;12.108;2022-12-24T06:38:50;10.02;;;9.15;;
26062;SDS011;13837;48.562;12.108;2022-12-24T06:41:17;10.07;;;9.10;;
26062;SDS011;13837;48.562;12.108;2022-12-24T06:43:47;9.68;;;8.98;;
26062;SDS011;13837;48.562;12.108;2022-12-24T06:46:15;10.98;;;9.68;;
26062;SDS011;13837;48.562;12.108;2022-12-24T06:48:42;11.15;;;10.15;;
26062;SDS011;13837;48.562;12.108;2022-12-24T06:51:09;12.80;;;9.90;;
26062;SDS011;13837;48.562;12.108;2022-12-24T06:53:35;10.77;;;9.88;;
26062;SDS011;13837;48.562;12.108;2022-12-24T06:56:05;10.60;;;9.68;;
26062;SDS011;13837;48.562;12.108;2022-12-24T06:58:32;9.93;;;9.30;;
26062;SDS011;13837;48.562;12.108;2022-12-24T07:01:00;10.82;;;9.90;;
26062;SDS011;13837;48.562;12.108;2022-12-24T07:03:26;11.10;;;10.30;;
26062;SDS011;13837;48.562;12.108;2022-12-24T07:05:53;13.50;;;12.35;;
26062;SDS011;13837;48.562;12.108;2022-12-24T07:08:18;12.77;;;11.48;;
26062;SDS011;13837;48.562;12.108;2022-12-24T07:10:44;11.70;;;10.70;;
26062;SDS011;13837;48.562;12.108;2022-12-24T07:13:10;11.82;;;10.77;;
26062;SDS011;13837;48.562;12.108;2022-12-24T07:15:35;12.82;;;11.90;;
26062;SDS011;13837;48.562;12.108;2022-12-24T07:18:01;11.98;;;11.10;;
26062;SDS011;13837;48.562;12.108;2022-12-24T07:20:27;12.00;;;11.10;;
26062;SDS011;13837;48.562;12.108;2022-12-24T07:22:52;12.10;;;10.90;;
26062;SDS011;13837;48.562;12.108;2022-12-24T07:25:18;12.02;;;10.77;;
26062;SDS011;13837;48.562;12.108;2022-12-24T07:27:44;12.50;;;11.63;;
26062;SDS011;13837;48.562;12.108;2022-12-24T07:30:09;12.18;;;11.15;;
26062;SDS011;13837;48.562;12.108;2022-12-24T07:32:36;11.70;;;10.70;;
26062;SDS011;13837;48.562;12.108;2022-12-24T07:35:02;11.95;;;11.02;;
26062;SDS011;13837;48.562;12.108;2022-12-24T07:37:27;11.68;;;10.55;;
26062;SDS011;13837;48.562;12.108;2022-12-24T07:39:53;11.63;;;10.68;;
26062;SDS011;13837;48.562;12.108;2022-12-24T07:42:19;11.75;;;10.57;;
26062;SDS011;13837;48.562;12.108;2022-12-24T07:44:45;13.18;;;11.48;;
26062;SDS011;13837;48.562;12.108;2022-12-24T07:47:11;12.10;;;10.88;;
26062;SDS011;13837;48.562;12.108;2022-12-24T07:49:37;12.00;;;10.90;;
26062;SDS011;13837;48.562;12.108;2022-12-24T07:52:03;12.32;;;11.05;;
26062;SDS011;13837;48.562;12.108;2022-12-24T07:54:29;11.43;;;10.40;;
26062;SDS011;13837;48.562;12.108;2022-12-24T07:56:54;11.70;;;10.80;;
26062;SDS011;13837;48.562;12.108;2022-12-24T07:59:20;11.02;;;10.10;;
26062;SDS011;13837;48.562;12.108;2022-12-24T08:01:46;10.77;;;9.80;;
26062;SDS011;13837;48.562;12.108;2022-12-24T08:04:12;10.57;;;9.57;;
26062;SDS011;13837;48.562;12.108;2022-12-24T08:06:38;11.15;;;10.00;;
26062;SDS011;13837;48.562;12.108;2022-12-24T08:09:04;10.63;;;9.73;;
26062;SDS011;13837;48.562;12.108;2022-12-24T08:11:30;10.18;;;9.18;;
26062;SDS011;13837;48.562;12.108;2022-12-24T08:13:56;9.85;;;8.95;;
26062;SDS011;13837;48.562;12.108;2022-12-24T08:16:22;10.20;;;9.15;;
26062;SDS011;13837;48.562;12.108;2022-12-24T08:18:47;9.85;;;9.02;;
26062;SDS011;13837;48.562;12.108;2022-12-24T08:21:13;13.25;;;9.40;;
26062;SDS011;13837;48.562;12.108;2022-12-24T08:23:40;10.68;;;9.68;;
26062;SDS011;13837;48.562;12.108;2022-12-24T08:26:06;10.18;;;9.23;;
26062;SDS011;13837;48.562;12.108;2022-12-24T08:28:33;11.45;;;9.55;;
26062;SDS011;13837;48.562;12.108;2022-12-24T08:30:59;10.95;;;9.95;;
26062;SDS011;13837;48.562;12.108;2022-12-24T08:33:25;11.25;;;10.20;;
26062;SDS011;13837;48.562;12.108;2022-12-24T08:35:52;11.40;;;10.38;;
26062;SDS011;13837;48.562;12.108;2022-12-24T08:38:19;10.75;;;9.90;;
26062;SDS011;13837;48.562;12.108;2022-12-24T08:40:45;11.57;;;10.50;;
26062;SDS011;13837;48.562;12.108;2022-12-24T08:43:17;10.90;;;10.00;;
26062;SDS011;13837;48.562;12.108;2022-12-24T08:45:43;15.88;;;12.57;;
26062;SDS011;13837;48.562;12.108;2022-12-24T08:48:10;11.27;;;10.38;;
26062;SDS011;13837;48.562;12.108;2022-12-24T08:50:40;13.88;;;12.48;;
26062;SDS011;13837;48.562;12.108;2022-12-24T08:53:06;19.00;;;15.75;;
26062;SDS011;13837;48.562;12.108;2022-12-24T08:55:33;16.35;;;14.15;;
26062;SDS011;13837;48.562;12.108;2022-12-24T08:57:59;19.30;;;14.85;;
26062;SDS011;13837;48.562;12.108;2022-12-24T09:00:25;17.17;;;13.48;;
26062;SDS011;13837;48.562;12.108;2022-12-24T09:02:51;14.63;;;12.45;;
26062;SDS011;13837;48.562;12.108;2022-12-24T09:05:16;12.10;;;10.90;;
26062;SDS011;13837;48.562;12.108;2022-12-24T09:07:42;14.13;;;12.60;;
26062;SDS011;13837;48.562;12.108;2022-12-24T09:10:08;15.02;;;13.20;;
26062;SDS011;13837;48.562;12.108;2022-12-24T09:12:35;14.68;;;10.80;;
26062;SDS011;13837;48.562;12.108;2022-12-24T09:15:01;12.55;;;11.35;;
26062;SDS011;13837;48.562;12.108;2022-12-24T09:17:28;11.60;;;10.70;;
26062;SDS011;13837;48.562;12.108;2022-12-24T09:19:53;11.43;;;10.38;;
26062;SDS011;13837;48.562;12.108;2022-12-24T09:22:20;11.18;;;10.27;;
26062;SDS011;13837;48.562;12.108;2022-12-24T09:24:46;11.35;;;10.18;;
26062;SDS011;13837;48.562;12.108;2022-12-24T09:27:12;12.32;;;10.75;;
26062;SDS011;13837;48.562;12.108;2022-12-24T09:29:37;10.38;;;9.57;;
26062;SDS011;13837;48.562;12.108;2022-12-24T09:32:05;11.02;;;10.20;;
26062;SDS011;13837;48.562;12.108;2022-12-24T09:34:31;11.18;;;10.18;;
26062;SDS011;13837;48.562;12.108;2022-12-24T09:36:56;11.55;;;10.75;;
26062;SDS011;13837;48.562;12.108;2022-12-24T09:39:24;13.68;;;11.75;;
26062;SDS011;13837;48.562;12.108;2022-12-24T09:47:09;13.35;;;11.40;;
26062;SDS011;13837;48.562;12.108;2022-12-24T09:52:14;11.10;;;10.35;;
26062;SDS011;13837;48.562;12.108;2022-12-24T09:54:53;11.63;;;10.73;;
26062;SDS011;13837;48.562;12.108;2022-12-24T09:57:33;14.55;;;11.82;;
26062;SDS011;13837;48.562;12.108;2022-12-24T10:00:01;11.32;;;10.52;;
26062;SDS011;13837;48.562;12.108;2022-12-24T10:02:35;11.98;;;10.65;;
26062;SDS011;13837;48.562;12.108;2022-12-24T10:05:00;11.82;;;10.93;;
26062;SDS011;13837;48.562;12.108;2022-12-24T10:07:32;14.80;;;13.38;;
26062;SDS011;13837;48.562;12.108;2022-12-24T10:15:49;13.75;;;12.52;;
26062;SDS011;13837;48.562;12.108;2022-12-24T10:18:32;10.68;;;9.98;;
26062;SDS011;13837;48.562;12.108;2022-12-24T10:23:40;9.90;;;9.07;;
26062;SDS011;13837;48.562;12.108;2022-12-24T10:31:53;9.90;;;9.30;;
26062;SDS011;13837;48.562;12.108;2022-12-24T10:34:26;9.20;;;8.60;;
26062;SDS011;13837;48.562;12.108;2022-12-24T10:36:56;9.98;;;8.93;;
26062;SDS011;13837;48.562;12.108;2022-12-24T10:39:23;8.75;;;8.27;;
26062;SDS011;13837;48.562;12.108;2022-12-24T10:41:51;9.75;;;9.15;;
26062;SDS011;13837;48.562;12.108;2022-12-24T10:44:22;9.43;;;8.73;;
26062;SDS011;13837;48.562;12.108;2022-12-24T10:46:52;9.93;;;9.00;;
26062;SDS011;13837;48.562;12.108;2022-12-24T10:49:22;9.40;;;8.60;;
26062;SDS011;13837;48.562;12.108;2022-12-24T10:51:54;9.23;;;8.52;;
26062;SDS011;13837;48.562;12.108;2022-12-24T10:54:26;9.45;;;8.73;;
26062;SDS011;13837;48.562;12.108;2022-12-24T10:56:59;10.13;;;9.23;;
26062;SDS011;13837;48.562;12.108;2022-12-24T11:01:58;11.10;;;8.73;;
26062;SDS011;13837;48.562;12.108;2022-12-24T11:04:29;8.70;;;8.20;;
26062;SDS011;13837;48.562;12.108;2022-12-24T11:09:39;9.85;;;8.88;;
26062;SDS011;13837;48.562;12.108;2022-12-24T11:12:05;9.50;;;8.63;;
26062;SDS011;13837;48.562;12.108;2022-12-24T11:14:42;8.38;;;7.80;;
26062;SDS011;13837;48.562;12.108;2022-12-24T11:17:09;8.52;;;7.93;;
26062;SDS011;13837;48.562;12.108;2022-12-24T11:19:46;8.77;;;8.05;;
26062;SDS011;13837;48.562;12.108;2022-12-24T11:22:18;9.68;;;8.77;;
26062;SDS011;13837;48.562;12.108;2022-12-24T11:27:29;7.90;;;7.38;;
26062;SDS011;13837;48.562;12.108;2022-12-24T11:30:10;9.75;;;8.93;;
26062;SDS011;13837;48.562;12.108;2022-12-24T11:32:47;8.27;;;7.63;;
26062;SDS011;13837;48.562;12.108;2022-12-24T11:35:40;8.52;;;8.02;;
26062;SDS011;13837;48.562;12.108;2022-12-24T11:38:11;8.75;;;8.15;;
26062;SDS011;13837;48.562;12.108;2022-12-24T11:40:46;8.50;;;7.72;;
26062;SDS011;13837;48.562;12.108;2022-12-24T11:43:15;8.52;;;7.80;;
26062;SDS011;13837;48.562;12.108;2022-12-24T11:45:53;9.53;;;8.63;;
26062;SDS011;13837;48.562;12.108;2022-12-24T11:48:23;12.15;;;8.10;;
26062;SDS011;13837;48.562;12.108;2022-12-24T11:51:34;11.40;;;8.23;;
26062;SDS011;13837;48.562;12.108;2022-12-24T11:53:58;9.00;;;8.10;;
26062;SDS011;13837;48.562;12.108;2022-12-24T11:59:15;13.35;;;8.10;;
26062;SDS011;13837;48.562;12.108;2022-12-24T12:01:54;8.77;;;8.07;;
26062;SDS011;13837;48.562;12.108;2022-12-24T12:04:26;9.18;;;8.27;;
26062;SDS011;13837;48.562;12.108;2022-12-24T12:07:02;9.43;;;8.13;;
26062;SDS011;13837;48.562;12.108;2022-12-24T12:09:36;9.25;;;8.38;;
26062;SDS011;13837;48.562;12.108;2022-12-24T12:12:14;8.95;;;8.07;;
26062;SDS011;13837;48.562;12.108;2022-12-24T12:14:51;9.50;;;8.70;;
26062;SDS011;13837;48.562;12.108;2022-12-24T12:17:30;8.35;;;7.85;;
26062;SDS011;13837;48.562;12.108;2022-12-24T12:26:10;9.05;;;8.20;;
26062;SDS011;13837;48.562;12.108;2022-12-24T12:31:25;8.77;;;7.97;;
26062;SDS011;13837;48.562;12.108;2022-12-24T12:34:39;10.57;;;9.55;;
26062;SDS011;13837;48.562;12.108;2022-12-24T12:37:34;9.77;;;8.88;;
26062;SDS011;13837;48.562;12.108;2022-12-24T12:40:02;12.18;;;8.77;;
26062;SDS011;13837;48.562;12.108;2022-12-24T12:42:51;8.82;;;8.18;;
26062;SDS011;13837;48.562;12.108;2022-12-24T12:45:49;9.40;;;8.60;;
26062;SDS011;13837;48.562;12.108;2022-12-24T12:57:24;8.00;;;7.30;;
26062;SDS011;13837;48.562;12.108;2022-12-24T13:01:07;9.32;;;8.43;;
26062;SDS011;13837;48.562;12.108;2022-12-24T13:17:00;8.52;;;7.80;;
26062;SDS011;13837;48.562;12.108;2022-12-24T13:23:12;9.63;;;8.75;;
26062;SDS011;13837;48.562;12.108;2022-12-24T13:25:44;9.10;;;8.30;;
26062;SDS011;13837;48.562;12.108;2022-12-24T13:28:31;9.07;;;8.38;;
26062;SDS011;13837;48.562;12.108;2022-12-24T13:33:57;17.08;;;14.23;;
26062;SDS011;13837;48.562;12.108;2022-12-24T13:37:02;20.33;;;15.95;;
26062;SDS011;13837;48.562;12.108;2022-12-24T13:48:30;9.65;;;9.02;;
26062;SDS011;13837;48.562;12.108;2022-12-24T13:50:59;9.05;;;8.30;;
26062;SDS011;13837;48.562;12.108;2022-12-24T13:53:48;13.97;;;13.30;;
26062;SDS011;13837;48.562;12.108;2022-12-24T13:59:09;8.80;;;8.30;;
26062;SDS011;13837;48.562;12.108;2022-12-24T14:01:51;7.78;;;7.28;;
26062;SDS011;13837;48.562;12.108;2022-12-24T14:04:21;8.82;;;8.10;;
26062;SDS011;13837;48.562;12.108;2022-12-24T14:06:55;8.00;;;7.55;;
26062;SDS011;13837;48.562;12.108;2022-12-24T14:18:22;8.43;;;7.68;;
26062;SDS011;13837;48.562;12.108;2022-12-24T14:20:56;9.50;;;8.80;;
26062;SDS011;13837;48.562;12.108;2022-12-24T14:23:29;10.68;;;9.63;;
26062;SDS011;13837;48.562;12.108;2022-12-24T14:26:21;8.75;;;7.90;;
26062;SDS011;13837;48.562;12.108;2022-12-24T14:32:34;8.65;;;8.25;;
26062;SDS011;13837;48.562;12.108;2022-12-24T14:35:13;8.73;;;7.95;;
26062;SDS011;13837;48.562;12.108;2022-12-24T14:37:41;8.60;;;8.00;;
26062;SDS011;13837;48.562;12.108;2022-12-24T14:40:15;8.32;;;7.82;;
26062;SDS011;13837;48.562;12.108;2022-12-24T14:42:47;8.82;;;8.02;;
26062;SDS011;13837;48.562;12.108;2022-12-24T14:56:30;8.98;;;8.13;;
26062;SDS011;13837;48.562;12.108;2022-12-24T14:58:56;9.65;;;8.95;;
26062;SDS011;13837;48.562;12.108;2022-12-24T15:01:29;8.88;;;8.25;;
26062;SDS011;13837;48.562;12.108;2022-12-24T15:06:27;13.77;;;8.95;;
26062;SDS011;13837;48.562;12.108;2022-12-24T15:08:55;9.70;;;8.88;;
26062;SDS011;13837;48.562;12.108;2022-12-24T15:11:21;9.38;;;8.68;;
26062;SDS011;13837;48.562;12.108;2022-12-24T15:13:52;9.98;;;9.15;;
26062;SDS011;13837;48.562;12.108;2022-12-24T15:16:27;9.25;;;8.35;;
26062;SDS011;13837;48.562;12.108;2022-12-24T15:21:58;8.88;;;8.38;;
26062;SDS011;13837;48.562;12.108;2022-12-24T15:27:22;12.32;;;10.68;;
26062;SDS011;13837;48.562;12.108;2022-12-24T15:29:51;10.50;;;9.70;;
26062;SDS011;13837;48.562;12.108;2022-12-24T15:32:19;9.95;;;9.15;;
26062;SDS011;13837;48.562;12.108;2022-12-24T15:34:46;9.65;;;8.90;;
26062;SDS011;13837;48.562;12.108;2022-12-24T15:37:29;22.98;;;16.48;;
26062;SDS011;13837;48.562;12.108;2022-12-24T15:40:08;17.05;;;11.77;;
26062;SDS011;13837;48.562;12.108;2022-12-24T15:42:43;14.38;;;11.82;;
26062;SDS011;13837;48.562;12.108;2022-12-24T15:45:13;12.15;;;10.95;;
26062;SDS011;13837;48.562;12.108;2022-12-24T15:47:50;11.93;;;10.93;;
26062;SDS011;13837;48.562;12.108;2022-12-24T15:50:32;10.20;;;9.45;;
26062;SDS011;13837;48.562;12.108;2022-12-24T15:53:01;10.00;;;9.40;;
26062;SDS011;13837;48.562;12.108;2022-12-24T15:55:30;10.13;;;9.32;;
26062;SDS011;13837;48.562;12.108;2022-12-24T15:58:00;9.68;;;8.95;;
26062;SDS011;13837;48.562;12.108;2022-12-24T16:00:29;10.55;;;9.70;;
26062;SDS011;13837;48.562;12.108;2022-12-24T16:03:16;9.73;;;9.02;;
26062;SDS011;13837;48.562;12.108;2022-12-24T16:05:44;10.27;;;9.57;;
26062;SDS011;13837;48.562;12.108;2022-12-24T16:10:40;8.80;;;8.20;;
26062;SDS011;13837;48.562;12.108;2022-12-24T16:15:47;9.90;;;9.10;;
26062;SDS011;13837;48.562;12.108;2022-12-24T16:18:21;9.57;;;8.77;;
26062;SDS011;13837;48.562;12.108;2022-12-24T16:20:58;10.70;;;9.88;;
26062;SDS011;13837;48.562;12.108;2022-12-24T16:23:27;10.18;;;9.35;;
26062;SDS011;13837;48.562;12.108;2022-12-24T16:25:58;10.27;;;9.20;;
26062;SDS011;13837;48.562;12.108;2022-12-24T16:28:24;10.45;;;9.75;;
26062;SDS011;13837;48.562;12.108;2022-12-24T16:30:50;12.27;;;11.05;;
26062;SDS011;13837;48.562;12.108;2022-12-24T16:33:19;11.63;;;10.63;;
26062;SDS011;13837;48.562;12.108;2022-12-24T16:35:46;10.60;;;9.68;;
26062;SDS011;13837;48.562;12.108;2022-12-24T16:38:12;11.43;;;10.48;;
26062;SDS011;13837;48.562;12.108;2022-12-24T16:40:41;15.05;;;13.15;;
26062;SDS011;13837;48.562;12.108;2022-12-24T16:43:07;12.60;;;11.40;;
26062;SDS011;13837;48.562;12.108;2022-12-24T16:48:57;18.35;;;16.35;;
26062;SDS011;13837;48.562;12.108;2022-12-24T16:52:36;19.20;;;16.10;;
26062;SDS011;13837;48.562;12.108;2022-12-24T16:54:57;36.33;;;23.45;;
26062;SDS011;13837;48.562;12.108;2022-12-24T16:57:25;29.88;;;20.77;;
26062;SDS011;13837;48.562;12.108;2022-12-24T16:59:51;21.25;;;16.88;;